| time (UTC) | temp F | wind direction | speed MPH | gust MPH | rain 1hr in | rain 24hr in | rain mn in | humidity % | barometer mb |
| 20260509161926 | 51 | 187 | 5.0 | 5.0 | 0.00 | 0.00 | 0.00 | 93 | 1009.5 |
| 20260509161423 | 51 | 189 | 5.0 | 9.0 | 0.00 | 0.00 | 0.00 | 93 | 1009.3 |
| 20260509160918 | 51 | 210 | 3.0 | 5.0 | 0.00 | 0.00 | 0.00 | 93 | 1009.2 |
| 20260509160414 | 51 | 138 | 4.0 | 5.0 | 0.00 | 0.00 | 0.00 | 93 | 1009.2 |
| 20260509155909 | 51 | 218 | 4.0 | 6.0 | 0.00 | 0.00 | 0.00 | 93 | 1009.1 |
| 20260509155407 | 50 | 191 | 7.0 | 8.0 | 0.00 | 0.00 | 0.00 | 93 | 1009.3 |
| 20260509154903 | 51 | 166 | 4.0 | 6.0 | 0.00 | 0.00 | 0.00 | 93 | 1009.3 |
| 20260509154359 | 50 | 189 | 4.0 | 5.0 | 0.00 | 0.00 | 0.00 | 94 | 1009.5 |
| 20260509153856 | 50 | 216 | 4.0 | 5.0 | 0.00 | 0.00 | 0.00 | 94 | 1009.4 |
| 20260509153354 | 50 | 181 | 4.0 | 6.0 | 0.00 | 0.00 | 0.00 | 94 | 1009.4 |
| 20260509152850 | 50 | 182 | 6.0 | 7.0 | 0.00 | 0.00 | 0.00 | 94 | 1009.5 |
| 20260509152346 | 50 | 212 | 3.0 | 5.0 | 0.00 | 0.00 | 0.00 | 95 | 1009.5 |
| 20260509151844 | 50 | 192 | 1.0 | 2.0 | 0.00 | 0.00 | 0.00 | 95 | 1009.6 |
| 20260509151339 | 49 | 187 | 5.0 | 6.0 | 0.00 | 0.00 | 0.00 | 95 | 1009.8 |
| 20260509150838 | 49 | 210 | 5.0 | 6.0 | 0.00 | 0.00 | 0.00 | 95 | 1009.8 |
| 20260509150335 | 49 | 147 | 2.0 | 2.0 | 0.00 | 0.00 | 0.00 | 95 | 1009.8 |
| 20260509145833 | 49 | 197 | 4.0 | 6.0 | 0.00 | 0.00 | 0.00 | 95 | 1009.9 |
| 20260509145327 | 49 | 192 | 5.0 | 6.0 | 0.00 | 0.00 | 0.00 | 95 | 1009.6 |
| 20260509144824 | 49 | 196 | 2.0 | 2.0 | 0.00 | 0.00 | 0.00 | 96 | 1009.9 |
| 20260509144321 | 49 | 169 | 3.0 | 5.0 | 0.00 | 0.00 | 0.00 | 95 | 1009.7 |
| 20260509143818 | 50 | 203 | 5.0 | 8.0 | 0.00 | 0.00 | 0.00 | 96 | 1009.8 |
| 20260509143316 | 49 | 208 | 3.0 | 3.0 | 0.00 | 0.00 | 0.00 | 96 | 1009.8 |
| 20260509142811 | 49 | 130 | 5.0 | 7.0 | 0.00 | 0.00 | 0.00 | 96 | 1009.7 |
| 20260509142308 | 49 | 184 | 4.0 | 6.0 | 0.00 | 0.00 | 0.00 | 97 | 1009.8 |
| 20260509141803 | 49 | 207 | 3.0 | 3.0 | 0.00 | 0.00 | 0.00 | 97 | 1009.9 |
| 20260509141300 | 49 | 211 | 3.0 | 3.0 | 0.00 | 0.00 | 0.00 | 97 | 1009.9 |
| 20260509140757 | 49 | 189 | 1.0 | 2.0 | 0.00 | 0.00 | 0.00 | 97 | 1009.7 |
| 20260509140254 | 48 | 168 | 2.0 | 2.0 | 0.00 | 0.00 | 0.00 | 97 | 1009.7 |
| 20260509135752 | 48 | 159 | 3.0 | 3.0 | 0.00 | 0.00 | 0.00 | 97 | 1010.1 |
| 20260509135249 | 48 | 195 | 3.0 | 3.0 | 0.00 | 0.00 | 0.00 | 97 | 1009.9 |
| 20260509134746 | 48 | 224 | 3.0 | 3.0 | 0.00 | 0.00 | 0.00 | 97 | 1010.0 |
| 20260509134244 | 48 | 193 | 5.0 | 7.0 | 0.00 | 0.00 | 0.00 | 97 | 1010.0 |
| 20260509133740 | 48 | 185 | 2.0 | 2.0 | 0.00 | 0.00 | 0.00 | 97 | 1010.0 |
| 20260509133237 | 48 | 216 | 3.0 | 5.0 | 0.00 | 0.00 | 0.00 | 97 | 1010.2 |
| 20260509132736 | 47 | 142 | 1.0 | 2.0 | 0.00 | 0.00 | 0.00 | 97 | 1010.1 |
| 20260509132234 | 47 | 215 | 3.0 | 5.0 | 0.00 | 0.00 | 0.00 | 97 | 1010.1 |
| 20260509131730 | 47 | 201 | 3.0 | 5.0 | 0.00 | 0.00 | 0.00 | 97 | 1010.1 |
| 20260509131227 | 47 | 188 | 3.0 | 3.0 | 0.00 | 0.00 | 0.00 | 97 | 1010.2 |
| 20260509130723 | 47 | 224 | 8.0 | 10.0 | 0.00 | 0.00 | 0.00 | 97 | 1010.2 |
| 20260509130219 | 47 | 202 | 8.0 | 9.0 | 0.00 | 0.00 | 0.00 | 97 | 1010.3 |
| 20260509125716 | 47 | 191 | 6.0 | 8.0 | 0.00 | 0.00 | 0.00 | 97 | 1010.2 |
| 20260509125213 | 47 | 183 | 2.0 | 3.0 | 0.00 | 0.00 | 0.00 | 97 | 1010.3 |
| 20260509124709 | 47 | 121 | 4.0 | 5.0 | 0.00 | 0.00 | 0.00 | 96 | 1010.2 |
| 20260509124206 | 47 | 182 | 2.0 | 3.0 | 0.00 | 0.00 | 0.00 | 96 | 1010.4 |
| 20260509123704 | 46 | 173 | 3.0 | 5.0 | 0.00 | 0.00 | 0.00 | 96 | 1010.3 |
| 20260509123201 | 46 | 187 | 3.0 | 3.0 | 0.00 | 0.00 | 0.00 | 96 | 1010.4 |
| 20260509122656 | 46 | 180 | 5.0 | 6.0 | 0.00 | 0.00 | 0.00 | 96 | 1010.6 |
| 20260509122154 | 46 | 170 | 3.0 | 3.0 | 0.00 | 0.00 | 0.00 | 96 | 1010.4 |
| 20260509121650 | 46 | 181 | 6.0 | 8.0 | 0.00 | 0.00 | 0.00 | 95 | 1010.7 |
| 20260509121148 | 46 | 188 | 4.0 | 5.0 | 0.00 | 0.00 | 0.00 | 95 | 1010.7 |
| 20260509120646 | 46 | 199 | 6.0 | 7.0 | 0.00 | 0.00 | 0.00 | 95 | 1010.5 |
| 20260509120144 | 46 | 194 | 5.0 | 6.0 | 0.00 | 0.00 | 0.00 | 95 | 1010.7 |
| 20260509115641 | 46 | 167 | 8.0 | 9.0 | 0.00 | 0.00 | 0.00 | 95 | 1010.6 |
| 20260509115138 | 46 | 216 | 4.0 | 5.0 | 0.00 | 0.00 | 0.00 | 95 | 1010.7 |
| 20260509114636 | 46 | 209 | 7.0 | 8.0 | 0.00 | 0.00 | 0.00 | 94 | 1010.8 |
| 20260509114135 | 46 | 189 | 7.0 | 8.0 | 0.00 | 0.00 | 0.00 | 94 | 1010.5 |
| 20260509113633 | 46 | 185 | 6.0 | 7.0 | 0.00 | 0.00 | 0.00 | 94 | 1010.9 |
| 20260509113130 | 45 | 224 | 4.0 | 5.0 | 0.00 | 0.00 | 0.00 | 94 | 1010.8 |
| 20260509112627 | 45 | 185 | 2.0 | 3.0 | 0.00 | 0.00 | 0.00 | 94 | 1010.9 |
| 20260509112124 | 45 | 174 | 3.0 | 5.0 | 0.00 | 0.00 | 0.00 | 93 | 1011.1 |
| 20260509111620 | 45 | 169 | 2.0 | 2.0 | 0.00 | 0.00 | 0.00 | 93 | 1010.8 |
| 20260509111117 | 45 | 127 | 3.0 | 3.0 | 0.00 | 0.00 | 0.00 | 92 | 1010.8 |
| 20260509110615 | 44 | 190 | 1.0 | 2.0 | 0.00 | 0.00 | 0.00 | 92 | 1010.8 |
| 20260509110112 | 44 | 193 | 4.0 | 5.0 | 0.00 | 0.00 | 0.00 | 92 | 1010.9 |
| 20260509105610 | 44 | 163 | 4.0 | 5.0 | 0.00 | 0.00 | 0.00 | 92 | 1010.7 |
| 20260509105107 | 44 | 172 | 2.0 | 5.0 | 0.00 | 0.00 | 0.00 | 92 | 1010.7 |
| 20260509104604 | 44 | 178 | 5.0 | 7.0 | 0.00 | 0.00 | 0.00 | 92 | 1010.8 |
| 20260509104100 | 44 | 182 | 4.0 | 5.0 | 0.00 | 0.00 | 0.00 | 91 | 1010.5 |
| 20260509103558 | 44 | 201 | 3.0 | 5.0 | 0.00 | 0.00 | 0.00 | 91 | 1010.7 |
| 20260509103056 | 44 | 173 | 5.0 | 7.0 | 0.00 | 0.00 | 0.00 | 90 | 1010.8 |
| 20260509102553 | 44 | 189 | 5.0 | 7.0 | 0.00 | 0.00 | 0.00 | 90 | 1010.8 |
| 20260509102050 | 44 | 184 | 4.0 | 5.0 | 0.00 | 0.00 | 0.00 | 89 | 1010.8 |
| 20260509101546 | 44 | 197 | 5.0 | 6.0 | 0.00 | 0.00 | 0.00 | 88 | 1010.5 |
| 20260509101043 | 45 | 174 | 7.0 | 8.0 | 0.00 | 0.00 | 0.00 | 88 | 1010.7 |
| 20260509100540 | 45 | 235 | 4.0 | 5.0 | 0.00 | 0.00 | 0.00 | 87 | 1010.6 |
| 20260509100038 | 44 | 200 | 6.0 | 7.0 | 0.00 | 0.00 | 0.00 | 87 | 1010.7 |
| 20260509095534 | 44 | 185 | 2.0 | 3.0 | 0.00 | 0.00 | 0.00 | 87 | 1010.4 |
| 20260509095032 | 44 | 172 | 3.0 | 6.0 | 0.00 | 0.00 | 0.00 | 86 | 1010.5 |
| 20260509094528 | 44 | 177 | 3.0 | 5.0 | 0.00 | 0.00 | 0.00 | 86 | 1010.5 |
| 20260509094025 | 44 | 187 | 2.0 | 3.0 | 0.00 | 0.00 | 0.00 | 85 | 1010.5 |
| 20260509093524 | 44 | 167 | 3.0 | 3.0 | 0.00 | 0.00 | 0.00 | 86 | 1010.5 |
| 20260509093021 | 43 | 199 | 4.0 | 5.0 | 0.00 | 0.00 | 0.00 | 86 | 1010.2 |
| 20260509092519 | 44 | 181 | 2.0 | 3.0 | 0.00 | 0.00 | 0.00 | 86 | 1010.6 |
| 20260509092017 | 44 | 199 | 2.0 | 2.0 | 0.00 | 0.00 | 0.00 | 85 | 1010.3 |
| 20260509091514 | 44 | 220 | 4.0 | 5.0 | 0.00 | 0.00 | 0.00 | 85 | 1010.6 |
| 20260509091010 | 44 | 215 | 2.0 | 2.0 | 0.00 | 0.00 | 0.00 | 85 | 1010.6 |
| 20260509090508 | 44 | 204 | 2.0 | 2.0 | 0.00 | 0.00 | 0.00 | 85 | 1010.6 |
| 20260509090006 | 44 | 169 | 2.0 | 2.0 | 0.00 | 0.00 | 0.00 | 84 | 1010.5 |
| 20260509085502 | 44 | 201 | 1.0 | 1.0 | 0.00 | 0.00 | 0.00 | 83 | 1010.7 |
| 20260509084958 | 44 | 257 | 1.0 | 2.0 | 0.00 | 0.00 | 0.00 | 83 | 1010.7 |
| 20260509084455 | 45 | 192 | 4.0 | 5.0 | 0.00 | 0.00 | 0.00 | 82 | 1010.9 |
| 20260509083953 | 45 | 201 | 2.0 | 2.0 | 0.00 | 0.00 | 0.00 | 82 | 1011.1 |
| 20260509083450 | 44 | 196 | 3.0 | 5.0 | 0.00 | 0.00 | 0.00 | 82 | 1011.1 |
| 20260509082946 | 45 | 177 | 3.0 | 6.0 | 0.00 | 0.00 | 0.00 | 81 | 1010.9 |
| 20260509082444 | 45 | 179 | 4.0 | 5.0 | 0.00 | 0.00 | 0.00 | 80 | 1010.9 |
| 20260509081941 | 45 | 179 | 3.0 | 5.0 | 0.00 | 0.00 | 0.00 | 80 | 1011.2 |
| 20260509081438 | 45 | 183 | 4.0 | 5.0 | 0.00 | 0.00 | 0.00 | 78 | 1011.1 |
| 20260509080935 | 45 | 236 | 3.0 | 3.0 | 0.00 | 0.00 | 0.00 | 78 | 1011.2 |
| 20260509080433 | 45 | 199 | 5.0 | 7.0 | 0.00 | 0.00 | 0.00 | 78 | 1011.1 |
| 20260509075931 | 45 | 201 | 4.0 | 5.0 | 0.00 | 0.00 | 0.00 | 77 | 1011.1 |
| 20260509075428 | 45 | 182 | 3.0 | 5.0 | 0.00 | 0.00 | 0.00 | 77 | 1011.2 |
| 20260509074926 | 45 | 207 | 2.0 | 2.0 | 0.00 | 0.00 | 0.00 | 75 | 1011.2 |
| 20260509074423 | 45 | 161 | 5.0 | 6.0 | 0.00 | 0.00 | 0.00 | 75 | 1011.1 |
| 20260509073919 | 45 | 194 | 7.0 | 8.0 | 0.00 | 0.00 | 0.00 | 74 | 1011.2 |
| 20260509073416 | 45 | 213 | 6.0 | 7.0 | 0.00 | 0.00 | 0.00 | 73 | 1011.5 |
| 20260509072912 | 45 | 126 | 7.0 | 8.0 | 0.00 | 0.00 | 0.00 | 72 | 1011.2 |
| 20260509072409 | 45 | 216 | 3.0 | 3.0 | 0.00 | 0.00 | 0.00 | 72 | 1011.3 |
| 20260509071905 | 46 | 190 | 4.0 | 5.0 | 0.00 | 0.00 | 0.00 | 69 | 1011.2 |
| 20260509071403 | 46 | 222 | 4.0 | 5.0 | 0.00 | 0.00 | 0.00 | 67 | 1011.5 |
| 20260509070900 | 45 | 221 | 4.0 | 6.0 | 0.00 | 0.00 | 0.00 | 67 | 1011.3 |
| 20260509070356 | 45 | 224 | 4.0 | 5.0 | 0.00 | 0.00 | 0.00 | 66 | 1011.5 |
| 20260509065852 | 46 | 187 | 4.0 | 6.0 | 0.00 | 0.00 | 0.00 | 66 | 1011.5 |
| 20260509065349 | 45 | 192 | 5.0 | 7.0 | 0.00 | 0.00 | 0.00 | 67 | 1011.6 |
| 20260509064844 | 45 | 210 | 2.0 | 2.0 | 0.00 | 0.00 | 0.00 | 67 | 1011.7 |
| 20260509064342 | 45 | 187 | 4.0 | 5.0 | 0.00 | 0.00 | 0.00 | 65 | 1011.6 |
| 20260509063840 | 46 | 201 | 2.0 | 2.0 | 0.00 | 0.00 | 0.00 | 65 | 1011.5 |
| 20260509063336 | 45 | 237 | 3.0 | 5.0 | 0.00 | 0.00 | 0.00 | 66 | 1011.5 |
| 20260509062833 | 44 | 215 | 3.0 | 5.0 | 0.00 | 0.00 | 0.00 | 70 | 1011.5 |
| 20260509062330 | 42 | 200 | 2.0 | 2.0 | 0.00 | 0.00 | 0.00 | 73 | 1011.6 |
| 20260509061827 | 42 | 187 | 2.0 | 2.0 | 0.00 | 0.00 | 0.00 | 78 | 1011.8 |
| 20260509061326 | 42 | 186 | 2.0 | 3.0 | 0.00 | 0.00 | 0.00 | 78 | 1011.6 |
| 20260509060822 | 41 | 200 | 2.0 | 2.0 | 0.00 | 0.00 | 0.00 | 79 | 1011.9 |
| 20260509060319 | 42 | 194 | 1.0 | 2.0 | 0.00 | 0.00 | 0.00 | 78 | 1011.8 |
| 20260509055814 | 41 | 195 | 1.0 | 2.0 | 0.00 | 0.00 | 0.00 | 81 | 1012.1 |
| 20260509055310 | 40 | 191 | 2.0 | 2.0 | 0.00 | 0.00 | 0.00 | 82 | 1012.1 |
| 20260509054808 | 40 | 193 | 2.0 | 2.0 | 0.00 | 0.00 | 0.00 | 87 | 1012.4 |
| 20260509054304 | 39 | 196 | 1.0 | 1.0 | 0.00 | 0.00 | 0.00 | 89 | 1012.3 |
| 20260509053802 | 39 | 203 | 2.0 | 3.0 | 0.00 | 0.00 | 0.00 | 92 | 1012.3 |
| 20260509053259 | 39 | 203 | 1.0 | 2.0 | 0.00 | 0.00 | 0.00 | 93 | 1012.3 |
| 20260509052757 | 39 | 200 | 1.0 | 2.0 | 0.00 | 0.00 | 0.00 | 93 | 1012.5 |
| 20260509052254 | 39 | 205 | 1.0 | 1.0 | 0.00 | 0.00 | 0.00 | 92 | 1012.4 |
| 20260509051752 | 40 | 200 | 1.0 | 1.0 | 0.00 | 0.00 | 0.00 | 91 | 1012.4 |
| 20260509051250 | 41 | 194 | 1.0 | 1.0 | 0.00 | 0.00 | 0.00 | 91 | 1012.5 |
| 20260509050746 | 41 | 210 | 0.0 | 0.0 | 0.00 | 0.00 | 0.00 | 91 | 1012.4 |
| 20260509050243 | 41 | 204 | 0.0 | 1.0 | 0.00 | 0.00 | 0.00 | 90 | 1012.4 |
| 20260509045740 | 41 | 213 | 0.0 | 0.0 | 0.00 | 0.00 | 0.00 | 89 | 1012.7 |
| 20260509045237 | 41 | 199 | 0.0 | 0.0 | 0.00 | 0.00 | 0.00 | 88 | 1012.9 |
| 20260509044734 | 41 | 187 | 1.0 | 1.0 | 0.00 | 0.00 | 0.00 | 88 | 1012.8 |
| 20260509044232 | 41 | 186 | 2.0 | 2.0 | 0.00 | 0.00 | 0.00 | 89 | 1012.9 |
| 20260509043728 | 41 | 197 | 2.0 | 3.0 | 0.00 | 0.00 | 0.00 | 89 | 1012.6 |
| 20260509043224 | 41 | 189 | 1.0 | 2.0 | 0.00 | 0.00 | 0.00 | 89 | 1012.7 |
| 20260509042721 | 41 | 190 | 0.0 | 0.0 | 0.00 | 0.00 | 0.00 | 89 | 1012.7 |
| 20260509042217 | 41 | 204 | 0.0 | 0.0 | 0.00 | 0.00 | 0.00 | 88 | 1012.8 |
| 20260509041714 | 41 | 197 | 1.0 | 1.0 | 0.00 | 0.00 | 0.00 | 88 | 1012.8 |
| 20260509041211 | 41 | 214 | 1.0 | 2.0 | 0.00 | 0.00 | 0.00 | 88 | 1012.6 |
| 20260509040709 | 40 | 207 | 1.0 | 2.0 | 0.00 | 0.00 | 0.00 | 86 | 1012.6 |
| 20260509040206 | 40 | 205 | 2.0 | 2.0 | 0.00 | 0.00 | 0.00 | 84 | 1012.7 |
| 20260509035702 | 40 | 203 | 1.0 | 1.0 | 0.00 | 0.00 | 0.00 | 83 | 1012.5 |
| 20260509035159 | 40 | 203 | 2.0 | 2.0 | 0.00 | 0.00 | 0.00 | 84 | 1012.8 |
| 20260509034657 | 39 | 211 | 0.0 | 0.0 | 0.00 | 0.00 | 0.00 | 87 | 1012.6 |
| 20260509034154 | 40 | 201 | 1.0 | 1.0 | 0.00 | 0.00 | 0.00 | 87 | 1012.7 |
| 20260509033651 | 40 | 200 | 1.0 | 1.0 | 0.00 | 0.00 | 0.00 | 85 | 1012.7 |
| 20260509033148 | 41 | 192 | 1.0 | 1.0 | 0.00 | 0.00 | 0.00 | 84 | 1012.8 |
| 20260509032645 | 39 | 219 | 3.0 | 3.0 | 0.00 | 0.00 | 0.00 | 88 | 1012.9 |
| 20260509032142 | 39 | 194 | 1.0 | 1.0 | 0.00 | 0.00 | 0.00 | 86 | 1012.6 |
| 20260509031639 | 40 | 207 | 0.0 | 0.0 | 0.00 | 0.00 | 0.00 | 84 | 1012.8 |
| 20260509031136 | 41 | 242 | 0.0 | 0.0 | 0.00 | 0.00 | 0.00 | 82 | 1012.7 |
| 20260509030635 | 41 | 210 | 0.0 | 1.0 | 0.00 | 0.00 | 0.00 | 83 | 1012.7 |
| 20260509030132 | 40 | 195 | 2.0 | 2.0 | 0.00 | 0.00 | 0.00 | 86 | 1012.7 |
| 20260509025628 | 40 | 205 | 0.0 | 0.0 | 0.00 | 0.00 | 0.00 | 84 | 1012.8 |
| 20260509025124 | 40 | 209 | 0.0 | 0.0 | 0.00 | 0.00 | 0.00 | 82 | 1012.6 |
| 20260509024619 | 40 | 215 | 0.0 | 0.0 | 0.00 | 0.00 | 0.00 | 80 | 1012.7 |
| 20260509024115 | 40 | 211 | 0.0 | 0.0 | 0.00 | 0.00 | 0.00 | 79 | 1012.9 |
| 20260509023614 | 40 | 215 | 0.0 | 0.0 | 0.00 | 0.00 | 0.00 | 81 | 1012.9 |
| 20260509023110 | 40 | 217 | 0.0 | 0.0 | 0.00 | 0.00 | 0.00 | 83 | 1012.7 |
| 20260509022607 | 41 | 204 | 0.0 | 0.0 | 0.00 | 0.00 | 0.00 | 81 | 1012.9 |
| 20260509022105 | 41 | 208 | 1.0 | 2.0 | 0.00 | 0.00 | 0.00 | 79 | 1013.1 |
| 20260509021601 | 40 | 181 | 1.0 | 2.0 | 0.00 | 0.00 | 0.00 | 81 | 1013.2 |
| 20260509021058 | 41 | 205 | 1.0 | 1.0 | 0.00 | 0.00 | 0.00 | 80 | 1013.1 |
| 20260509020557 | 42 | 215 | 0.0 | 0.0 | 0.00 | 0.00 | 0.00 | 76 | 1013.0 |
| 20260509020053 | 42 | 229 | 2.0 | 2.0 | 0.00 | 0.00 | 0.00 | 77 | 1013.0 |
| 20260509015552 | 40 | 222 | 2.0 | 3.0 | 0.00 | 0.00 | 0.00 | 80 | 1013.1 |
| 20260509015049 | 40 | 200 | 0.0 | 0.0 | 0.00 | 0.00 | 0.00 | 81 | 1013.0 |
| 20260509014545 | 40 | 234 | 0.0 | 0.0 | 0.00 | 0.00 | 0.00 | 81 | 1012.8 |
| 20260509014042 | 40 | 235 | 0.0 | 0.0 | 0.00 | 0.00 | 0.00 | 81 | 1012.5 |
| 20260509013539 | 41 | 222 | 0.0 | 0.0 | 0.00 | 0.00 | 0.00 | 81 | 1012.5 |
| 20260509013034 | 41 | 236 | 0.0 | 0.0 | 0.00 | 0.00 | 0.00 | 81 | 1012.6 |
| 20260509012531 | 41 | 237 | 0.0 | 0.0 | 0.00 | 0.00 | 0.00 | 79 | 1012.6 |
| 20260509012028 | 42 | 252 | 0.0 | 0.0 | 0.00 | 0.00 | 0.00 | 77 | 1012.7 |
| 20260509011526 | 41 | 249 | 2.0 | 2.0 | 0.00 | 0.00 | 0.00 | 77 | 1012.4 |
| 20260509011023 | 41 | 263 | 0.0 | 0.0 | 0.00 | 0.00 | 0.00 | 81 | 1012.5 |
| 20260509010521 | 41 | 220 | 0.0 | 0.0 | 0.00 | 0.00 | 0.00 | 82 | 1012.4 |
| 20260509010017 | 40 | 216 | 0.0 | 0.0 | 0.00 | 0.00 | 0.00 | 83 | 1012.4 |
| 20260509005515 | 40 | 276 | 0.0 | 0.0 | 0.00 | 0.00 | 0.00 | 82 | 1012.2 |
| 20260509005015 | 40 | 276 | 0.0 | 0.0 | 0.00 | 0.00 | 0.00 | 82 | 1012.1 |
| 20260509004512 | 41 | 277 | 0.0 | 0.0 | 0.00 | 0.00 | 0.00 | 82 | 1012.0 |
| 20260509004009 | 41 | 277 | 0.0 | 0.0 | 0.00 | 0.00 | 0.00 | 81 | 1012.2 |
| 20260509003508 | 41 | 278 | 0.0 | 0.0 | 0.00 | 0.00 | 0.00 | 80 | 1012.2 |
| 20260509003004 | 42 | 281 | 0.0 | 0.0 | 0.00 | 0.00 | 0.00 | 80 | 1012.0 |
| 20260509002503 | 42 | 274 | 0.0 | 0.0 | 0.00 | 0.00 | 0.00 | 79 | 1012.0 |
| 20260509001959 | 42 | 289 | 0.0 | 0.0 | 0.00 | 0.00 | 0.00 | 78 | 1011.9 |
| 20260509001456 | 43 | 287 | 0.0 | 0.0 | 0.00 | 0.00 | 0.00 | 78 | 1011.8 |
| 20260509000952 | 43 | 271 | 1.0 | 1.0 | 0.00 | 0.00 | 0.00 | 78 | 1012.0 |
| 20260509000451 | 44 | 278 | 2.0 | 2.0 | 0.00 | 0.00 | 0.00 | 77 | 1011.9 |
| 20260508235946 | 44 | 277 | 2.0 | 2.0 | 0.00 | 0.00 | 0.00 | 78 | 1011.8 |
| 20260508235444 | 44 | 274 | 2.0 | 2.0 | 0.00 | 0.00 | 0.00 | 78 | 1011.8 |
| 20260508234940 | 44 | 276 | 2.0 | 2.0 | 0.00 | 0.00 | 0.00 | 77 | 1011.7 |
| 20260508234437 | 45 | 274 | 2.0 | 2.0 | 0.00 | 0.00 | 0.00 | 76 | 1011.7 |
| 20260508233935 | 45 | 280 | 0.0 | 0.0 | 0.00 | 0.00 | 0.00 | 75 | 1011.5 |
| 20260508233435 | 45 | 277 | 0.0 | 0.0 | 0.00 | 0.00 | 0.00 | 73 | 1011.5 |
| 20260508232930 | 45 | 286 | 0.0 | 0.0 | 0.00 | 0.00 | 0.00 | 69 | 1011.6 |
| 20260508232428 | 46 | 282 | 0.0 | 0.0 | 0.00 | 0.00 | 0.00 | 66 | 1011.5 |
| 20260508231925 | 46 | 283 | 0.0 | 0.0 | 0.00 | 0.00 | 0.00 | 64 | 1011.5 |
| 20260508231422 | 46 | 302 | 0.0 | 0.0 | 0.00 | 0.00 | 0.00 | 64 | 1011.6 |
| 20260508230919 | 47 | 269 | 0.0 | 0.0 | 0.00 | 0.00 | 0.00 | 66 | 1011.6 |
| 20260508230415 | 47 | 279 | 0.0 | 0.0 | 0.00 | 0.00 | 0.00 | 60 | 1011.5 |
| 20260508225913 | 47 | 269 | 0.0 | 1.0 | 0.00 | 0.00 | 0.00 | 60 | 1011.6 |
| 20260508225409 | 47 | 297 | 0.0 | 0.0 | 0.00 | 0.00 | 0.00 | 61 | 1011.5 |
| 20260508224907 | 47 | 285 | 0.0 | 0.0 | 0.00 | 0.00 | 0.00 | 59 | 1011.8 |
| 20260508224404 | 47 | 281 | 1.0 | 1.0 | 0.00 | 0.00 | 0.00 | 58 | 1011.7 |
| 20260508223902 | 47 | 315 | 1.0 | 1.0 | 0.00 | 0.00 | 0.00 | 63 | 1011.5 |
| 20260508223359 | 48 | 344 | 1.0 | 1.0 | 0.00 | 0.00 | 0.00 | 60 | 1011.5 |
| 20260508222856 | 48 | 339 | 1.0 | 2.0 | 0.00 | 0.00 | 0.00 | 63 | 1011.5 |
| 20260508222353 | 48 | 331 | 2.0 | 2.0 | 0.00 | 0.00 | 0.00 | 59 | 1011.6 |
| 20260508221850 | 49 | 316 | 2.0 | 2.0 | 0.00 | 0.00 | 0.00 | 58 | 1011.6 |
| 20260508221345 | 48 | 351 | 1.0 | 1.0 | 0.00 | 0.00 | 0.00 | 58 | 1011.7 |
| 20260508220842 | 49 | 2 | 2.0 | 2.0 | 0.00 | 0.00 | 0.00 | 59 | 1011.6 |
| 20260508220339 | 50 | 348 | 1.0 | 1.0 | 0.00 | 0.00 | 0.00 | 58 | 1011.8 |
| 20260508215835 | 50 | 319 | 2.0 | 2.0 | 0.00 | 0.00 | 0.00 | 55 | 1011.6 |
| 20260508215332 | 51 | 295 | 0.0 | 0.0 | 0.00 | 0.00 | 0.00 | 56 | 1011.8 |
| 20260508214829 | 51 | 267 | 0.0 | 0.0 | 0.00 | 0.00 | 0.00 | 54 | 1011.8 |
| 20260508214326 | 51 | 9 | 2.0 | 2.0 | 0.00 | 0.00 | 0.00 | 51 | 1011.7 |
| 20260508213822 | 52 | 253 | 2.0 | 2.0 | 0.00 | 0.00 | 0.00 | 53 | 1011.7 |
| 20260508213319 | 51 | 198 | 3.0 | 3.0 | 0.00 | 0.00 | 0.00 | 53 | 1011.7 |
| 20260508212816 | 52 | 68 | 1.0 | 1.0 | 0.00 | 0.00 | 0.00 | 54 | 1011.7 |
| 20260508212312 | 51 | 275 | 3.0 | 3.0 | 0.00 | 0.00 | 0.00 | 58 | 1012.0 |
| 20260508211808 | 51 | 34 | 3.0 | 5.0 | 0.00 | 0.00 | 0.00 | 52 | 1012.0 |
| 20260508211304 | 52 | 346 | 3.0 | 3.0 | 0.00 | 0.00 | 0.00 | 49 | 1012.0 |
| 20260508210802 | 51 | 13 | 2.0 | 2.0 | 0.00 | 0.00 | 0.00 | 58 | 1011.8 |
| 20260508210258 | 51 | 37 | 3.0 | 5.0 | 0.00 | 0.00 | 0.00 | 53 | 1012.1 |
| 20260508205755 | 51 | 36 | 3.0 | 3.0 | 0.00 | 0.00 | 0.00 | 56 | 1012.1 |
| 20260508205251 | 51 | 57 | 1.0 | 3.0 | 0.00 | 0.00 | 0.00 | 57 | 1012.1 |
| 20260508204748 | 51 | 223 | 3.0 | 3.0 | 0.00 | 0.00 | 0.00 | 53 | 1012.0 |
| 20260508204244 | 51 | 2 | 1.0 | 2.0 | 0.00 | 0.00 | 0.00 | 56 | 1012.0 |
| 20260508203740 | 52 | 48 | 4.0 | 5.0 | 0.00 | 0.00 | 0.00 | 53 | 1012.2 |
| 20260508203237 | 51 | 270 | 2.0 | 2.0 | 0.00 | 0.00 | 0.00 | 52 | 1012.1 |
| 20260508202732 | 50 | 356 | 1.0 | 1.0 | 0.00 | 0.00 | 0.00 | 56 | 1012.1 |
| 20260508202230 | 50 | 49 | 3.0 | 5.0 | 0.00 | 0.00 | 0.00 | 59 | 1011.8 |
| 20260508201727 | 51 | 26 | 3.0 | 5.0 | 0.00 | 0.00 | 0.00 | 58 | 1012.1 |
| 20260508201224 | 51 | 39 | 3.0 | 3.0 | 0.00 | 0.00 | 0.00 | 62 | 1012.2 |
| 20260508200721 | 52 | 166 | 1.0 | 2.0 | 0.00 | 0.00 | 0.00 | 60 | 1012.2 |
| 20260508200217 | 51 | 131 | 4.0 | 5.0 | 0.00 | 0.00 | 0.00 | 58 | 1012.2 |
| 20260508195713 | 52 | 205 | 2.0 | 3.0 | 0.00 | 0.00 | 0.00 | 57 | 1012.4 |
| 20260508195210 | 51 | 52 | 3.0 | 3.0 | 0.00 | 0.00 | 0.00 | 57 | 1012.6 |
| 20260508194706 | 52 | 122 | 1.0 | 1.0 | 0.00 | 0.00 | 0.00 | 58 | 1012.7 |
| 20260508194203 | 51 | 101 | 3.0 | 3.0 | 0.00 | 0.00 | 0.00 | 62 | 1012.4 |
| 20260508193700 | 51 | 25 | 3.0 | 3.0 | 0.00 | 0.00 | 0.00 | 63 | 1012.4 |
| 20260508193157 | 50 | 89 | 3.0 | 3.0 | 0.00 | 0.00 | 0.00 | 58 | 1012.2 |
| 20260508192653 | 51 | 178 | 7.0 | 8.0 | 0.00 | 0.00 | 0.00 | 63 | 1012.4 |
| 20260508192151 | 50 | 108 | 5.0 | 7.0 | 0.00 | 0.00 | 0.00 | 60 | 1012.4 |
| 20260508191648 | 50 | 60 | 3.0 | 3.0 | 0.00 | 0.00 | 0.00 | 64 | 1012.2 |
| 20260508191144 | 50 | 80 | 3.0 | 3.0 | 0.00 | 0.00 | 0.00 | 65 | 1012.7 |
| 20260508190642 | 49 | 83 | 4.0 | 5.0 | 0.00 | 0.00 | 0.00 | 66 | 1012.6 |
| 20260508190138 | 48 | 37 | 3.0 | 3.0 | 0.00 | 0.00 | 0.00 | 65 | 1012.4 |
| 20260508185635 | 47 | 339 | 0.0 | 1.0 | 0.00 | 0.00 | 0.00 | 67 | 1012.3 |
| 20260508185132 | 47 | 32 | 3.0 | 3.0 | 0.00 | 0.00 | 0.00 | 66 | 1012.7 |
| 20260508184629 | 46 | 314 | 0.0 | 0.0 | 0.00 | 0.00 | 0.00 | 70 | 1012.8 |
| 20260508184127 | 46 | 193 | 3.0 | 3.0 | 0.00 | 0.00 | 0.00 | 72 | 1012.8 |
| 20260508183623 | 46 | 122 | 1.0 | 2.0 | 0.00 | 0.00 | 0.00 | 73 | 1012.8 |
| 20260508183119 | 46 | 30 | 1.0 | 1.0 | 0.00 | 0.00 | 0.00 | 75 | 1012.8 |
| 20260508182615 | 45 | 142 | 3.0 | 3.0 | 0.00 | 0.00 | 0.00 | 75 | 1012.8 |
| 20260508182112 | 45 | 249 | 0.0 | 1.0 | 0.00 | 0.00 | 0.00 | 74 | 1012.9 |
| 20260508181607 | 45 | 149 | 3.0 | 3.0 | 0.00 | 0.00 | 0.00 | 75 | 1013.0 |
| 20260508181105 | 46 | 209 | 6.0 | 9.0 | 0.00 | 0.00 | 0.00 | 75 | 1013.0 |
| 20260508180601 | 47 | 122 | 5.0 | 7.0 | 0.00 | 0.00 | 0.00 | 76 | 1012.8 |
| 20260508180058 | 46 | 186 | 2.0 | 2.0 | 0.00 | 0.00 | 0.00 | 80 | 1013.0 |
| 20260508175554 | 46 | 99 | 4.0 | 5.0 | 0.00 | 0.00 | 0.00 | 80 | 1013.3 |
| 20260508175052 | 45 | 115 | 2.0 | 2.0 | 0.00 | 0.00 | 0.00 | 80 | 1013.0 |
| 20260508174549 | 44 | 125 | 4.0 | 5.0 | 0.00 | 0.00 | 0.00 | 81 | 1013.2 |
| 20260508174046 | 44 | 216 | 3.0 | 3.0 | 0.00 | 0.00 | 0.00 | 81 | 1013.1 |
| 20260508173543 | 45 | 203 | 3.0 | 5.0 | 0.00 | 0.00 | 0.00 | 82 | 1013.2 |
| 20260508173039 | 44 | 175 | 3.0 | 3.0 | 0.00 | 0.00 | 0.00 | 84 | 1013.3 |
| 20260508172536 | 43 | 68 | 1.0 | 2.0 | 0.00 | 0.00 | 0.00 | 83 | 1013.3 |
| 20260508172033 | 43 | 97 | 5.0 | 6.0 | 0.00 | 0.00 | 0.00 | 84 | 1013.3 |
| 20260508171529 | 43 | 67 | 1.0 | 1.0 | 0.00 | 0.00 | 0.00 | 84 | 1013.5 |
| 20260508171026 | 43 | 89 | 2.0 | 2.0 | 0.00 | 0.00 | 0.00 | 85 | 1013.4 |
| 20260508170523 | 43 | 168 | 3.0 | 3.0 | 0.00 | 0.00 | 0.00 | 86 | 1013.3 |
| 20260508170021 | 42 | 76 | 3.0 | 3.0 | 0.00 | 0.00 | 0.00 | 86 | 1013.3 |
| 20260508165518 | 42 | 82 | 2.0 | 2.0 | 0.00 | 0.00 | 0.00 | 87 | 1013.6 |
| 20260508165014 | 42 | 282 | 1.0 | 1.0 | 0.00 | 0.00 | 0.00 | 86 | 1013.5 |
| 20260508164511 | 42 | 333 | 4.0 | 6.0 | 0.00 | 0.00 | 0.00 | 86 | 1013.4 |
| 20260508164008 | 43 | 139 | 4.0 | 6.0 | 0.00 | 0.00 | 0.00 | 86 | 1013.3 |
| 20260508163505 | 43 | 235 | 4.0 | 5.0 | 0.00 | 0.00 | 0.00 | 86 | 1013.5 |
| 20260508163001 | 44 | 120 | 5.0 | 7.0 | 0.00 | 0.00 | 0.00 | 87 | 1013.2 |
| 20260508162459 | 42 | 85 | 2.0 | 3.0 | 0.00 | 0.00 | 0.00 | 86 | 1013.5 |